createdAt,value
2019-06-20T00:01:07.203Z,17.50
2019-06-20T00:03:36.284Z,17.50
2019-06-20T00:06:05.061Z,17.60
2019-06-20T00:08:35.666Z,17.60
2019-06-20T00:11:04.379Z,17.60
2019-06-20T00:13:42.257Z,17.50
2019-06-20T00:16:10.961Z,17.50
2019-06-20T00:18:39.595Z,17.50
2019-06-20T00:21:08.303Z,17.50
2019-06-20T00:23:42.985Z,17.20
2019-06-20T00:26:11.617Z,17.30
2019-06-20T00:28:40.244Z,17.30
2019-06-20T00:31:08.971Z,17.20
2019-06-20T00:33:37.583Z,17.20
2019-06-20T00:36:06.352Z,17.30
2019-06-20T00:38:50.089Z,17.20
2019-06-20T00:41:18.906Z,17.30
2019-06-20T00:43:49.508Z,17.30
2019-06-20T00:46:18.131Z,17.10
2019-06-20T00:48:46.833Z,17.10
2019-06-20T00:51:15.544Z,17.10
2019-06-20T00:53:44.165Z,17.20
2019-06-20T00:56:12.849Z,17.20
2019-06-20T00:58:53.415Z,17.20
2019-06-20T01:01:22.053Z,17.20
2019-06-20T01:03:50.748Z,17.20
2019-06-20T01:06:19.389Z,17.20
2019-06-20T01:09:03.487Z,17.30
2019-06-20T01:11:32.122Z,17.20
2019-06-20T01:14:00.730Z,17.20
2019-06-20T01:17:02.901Z,17.30
2019-06-20T01:19:31.576Z,17.30
2019-06-20T01:22:00.222Z,17.20
2019-06-20T01:24:29.055Z,17.20
2019-06-20T01:26:57.706Z,17.20
2019-06-20T01:29:26.298Z,17.20
2019-06-20T01:31:58.020Z,17.20
2019-06-20T01:34:26.722Z,17.10
2019-06-20T01:36:55.486Z,17.10
2019-06-20T01:39:32.612Z,17.10
2019-06-20T01:42:01.439Z,17.10
2019-06-20T01:44:51.293Z,17.20
2019-06-20T01:47:19.932Z,17.20
2019-06-20T01:49:48.689Z,17.10
2019-06-20T01:52:25.499Z,17.20
2019-06-20T01:54:54.136Z,17.20
2019-06-20T01:57:22.843Z,17.10
2019-06-20T01:59:51.491Z,17.20
2019-06-20T02:02:20.165Z,17.10
2019-06-20T02:04:54.110Z,17.10
2019-06-20T02:07:22.726Z,17.30
2019-06-20T02:09:51.374Z,17.20
2019-06-20T02:12:20.081Z,17.20
2019-06-20T02:14:48.722Z,17.20
2019-06-20T02:17:20.602Z,17.20
2019-06-20T02:19:49.398Z,17.30
2019-06-20T02:22:17.998Z,17.30
2019-06-20T02:24:52.769Z,17.30
2019-06-20T02:27:22.133Z,17.30
2019-06-20T02:29:50.952Z,17.20
2019-06-20T02:32:19.565Z,17.10
2019-06-20T02:34:48.253Z,17.10
2019-06-20T02:37:16.974Z,17.10
2019-06-20T02:39:45.622Z,17.20
2019-06-20T02:42:14.497Z,17.10
2019-06-20T02:44:49.044Z,16.90
2019-06-20T02:47:24.935Z,17.00
2019-06-20T02:49:53.745Z,17.10
2019-06-20T02:52:23.446Z,17.00
2019-06-20T02:54:52.124Z,17.00
2019-06-20T02:57:20.737Z,16.90
2019-06-20T02:59:52.424Z,16.90
2019-06-20T03:02:21.026Z,16.90
2019-06-20T03:05:01.672Z,17.00
2019-06-20T03:07:30.281Z,17.00
2019-06-20T03:09:58.918Z,17.00
2019-06-20T03:12:27.607Z,17.00
2019-06-20T03:14:56.237Z,17.00
2019-06-20T03:17:25.364Z,17.00
2019-06-20T03:19:53.995Z,16.90
2019-06-20T03:22:22.610Z,16.90
2019-06-20T03:24:51.264Z,16.90
2019-06-20T03:27:19.951Z,17.00
2019-06-20T03:29:48.689Z,16.90
2019-06-20T03:32:17.445Z,16.90
2019-06-20T03:34:46.084Z,16.80
2019-06-20T03:37:20.891Z,16.80
2019-06-20T03:39:49.601Z,16.70
2019-06-20T03:42:18.234Z,16.70
2019-06-20T03:45:02.078Z,16.70
2019-06-20T03:47:26.654Z,16.90
2019-06-20T03:49:55.282Z,16.90
2019-06-20T03:52:25.976Z,17.00
2019-06-20T03:54:54.612Z,16.80
2019-06-20T03:57:23.227Z,16.90
2019-06-20T03:59:52.052Z,16.90
2019-06-20T04:02:20.730Z,16.90
2019-06-20T04:04:49.340Z,17.00
2019-06-20T04:07:17.981Z,16.90
2019-06-20T04:09:46.593Z,16.80
2019-06-20T04:12:15.229Z,16.80
2019-06-20T04:14:43.851Z,16.80
2019-06-20T04:17:12.499Z,16.90
2019-06-20T04:19:41.188Z,16.90
2019-06-20T04:22:09.837Z,16.90
2019-06-20T04:24:39.986Z,16.90
2019-06-20T04:27:08.749Z,16.70
2019-06-20T04:29:37.370Z,16.70
2019-06-20T04:32:06.386Z,16.60
2019-06-20T04:34:35.251Z,16.60
2019-06-20T04:37:03.888Z,16.60
2019-06-20T04:39:35.538Z,16.70
2019-06-20T04:42:04.139Z,16.60
2019-06-20T04:44:32.807Z,16.60
2019-06-20T04:47:03.050Z,16.60
2019-06-20T04:49:31.814Z,16.60
2019-06-20T04:52:00.406Z,16.80
2019-06-20T04:54:29.020Z,16.60
2019-06-20T04:56:57.816Z,16.70
2019-06-20T04:59:26.423Z,16.70
2019-06-20T05:01:55.107Z,16.60
2019-06-20T05:04:24.839Z,16.60
2019-06-20T05:07:02.469Z,16.60
2019-06-20T05:09:31.107Z,16.60
2019-06-20T05:11:59.887Z,16.70
2019-06-20T05:14:28.648Z,16.60
2019-06-20T05:16:57.244Z,16.70
2019-06-20T05:19:25.909Z,16.80
2019-06-20T05:21:54.580Z,16.70
2019-06-20T05:24:25.555Z,16.80
2019-06-20T05:26:54.521Z,16.80
2019-06-20T05:29:23.156Z,16.70
2019-06-20T05:31:51.953Z,16.70
2019-06-20T05:34:20.657Z,16.90
2019-06-20T05:36:49.661Z,17.00
2019-06-20T05:39:18.450Z,17.00
2019-06-20T05:41:47.063Z,16.90
2019-06-20T05:44:15.669Z,16.80
2019-06-20T05:46:44.420Z,16.90
2019-06-20T05:49:13.020Z,17.00
2019-06-20T05:51:42.548Z,17.30
2019-06-20T05:54:11.209Z,17.30
2019-06-20T05:56:39.893Z,17.40
2019-06-20T05:59:09.493Z,17.50
2019-06-20T06:01:38.195Z,17.30
2019-06-20T06:04:07.843Z,17.20
2019-06-20T06:06:36.474Z,17.10
2019-06-20T06:09:07.265Z,17.20
2019-06-20T06:11:35.899Z,17.10
2019-06-20T06:14:04.658Z,16.90
2019-06-20T06:16:33.268Z,17.00
2019-06-20T06:19:01.894Z,17.20
2019-06-20T06:21:30.496Z,16.90
2019-06-20T06:24:44.780Z,16.80
2019-06-20T06:27:13.398Z,16.80
2019-06-20T06:29:42.034Z,16.90
2019-06-20T06:32:10.815Z,17.10
2019-06-20T06:34:39.500Z,17.30
2019-06-20T06:37:08.130Z,17.40
2019-06-20T06:39:36.849Z,17.40
2019-06-20T06:42:05.633Z,17.20
2019-06-20T06:44:34.462Z,17.10
2019-06-20T06:47:03.081Z,17.10
2019-06-20T06:49:31.830Z,17.00
2019-06-20T06:52:00.580Z,17.00
2019-06-20T06:54:29.175Z,17.00
2019-06-20T06:56:57.876Z,17.10
2019-06-20T06:59:26.504Z,17.00
2019-06-20T07:01:55.287Z,17.20
2019-06-20T07:04:23.994Z,17.20
2019-06-20T07:06:52.637Z,17.10
2019-06-20T07:09:21.238Z,17.10
2019-06-20T07:11:50.151Z,17.30
2019-06-20T07:14:18.829Z,17.40
2019-06-20T07:16:59.675Z,17.30
2019-06-20T07:19:17.801Z,17.40
2019-06-20T07:21:46.613Z,17.40
2019-06-20T07:24:15.224Z,17.50
2019-06-20T07:26:43.936Z,17.60
2019-06-20T07:29:12.581Z,17.60
2019-06-20T07:31:41.358Z,17.80
2019-06-20T07:34:09.965Z,17.90
2019-06-20T07:36:38.585Z,17.70
2019-06-20T07:39:19.397Z,17.90
2019-06-20T07:41:48.013Z,18.00
2019-06-20T07:44:16.632Z,17.40
2019-06-20T07:46:45.350Z,17.70
2019-06-20T07:49:13.952Z,17.80
2019-06-20T07:51:42.632Z,17.90
2019-06-20T07:54:11.270Z,17.70
2019-06-20T07:56:39.987Z,18.00
2019-06-20T07:59:08.694Z,18.20
2019-06-20T08:01:37.397Z,18.30
2019-06-20T08:04:06.145Z,18.30
2019-06-20T08:06:34.854Z,18.10
2019-06-20T08:09:04.590Z,18.00
2019-06-20T08:11:36.338Z,17.70
2019-06-20T08:14:05.394Z,17.50
2019-06-20T08:16:34.140Z,17.50
2019-06-20T08:19:02.911Z,17.60
2019-06-20T08:21:34.810Z,17.80
2019-06-20T08:24:03.565Z,17.60
2019-06-20T08:26:32.250Z,17.60
2019-06-20T08:29:15.837Z,17.70
2019-06-20T08:31:31.978Z,17.90
2019-06-20T08:34:15.858Z,18.30
2019-06-20T08:36:44.478Z,18.80
2019-06-20T08:39:13.128Z,19.20
2019-06-20T08:41:41.870Z,19.20
2019-06-20T08:44:11.975Z,19.50
2019-06-20T08:46:40.595Z,20.10
2019-06-20T08:49:09.320Z,21.00
2019-06-20T08:51:38.076Z,20.60
2019-06-20T08:54:06.856Z,20.50
2019-06-20T08:56:35.571Z,20.10
2019-06-20T08:59:04.845Z,20.00
2019-06-20T09:01:33.716Z,20.20
2019-06-20T09:06:30.956Z,20.20
2019-06-20T09:09:00.079Z,20.30
2019-06-20T09:11:28.776Z,20.30
2019-06-20T09:13:57.510Z,20.30
2019-06-20T09:16:26.100Z,20.20
2019-06-20T09:18:55.325Z,19.90
2019-06-20T09:21:25.152Z,19.70
2019-06-20T09:23:54.172Z,19.40
2019-06-20T09:26:24.026Z,19.60
2019-06-20T09:28:54.032Z,19.30
2019-06-20T09:31:23.289Z,19.50
2019-06-20T09:33:53.542Z,19.20
2019-06-20T09:36:22.289Z,19.20
2019-06-20T09:38:52.073Z,19.40
2019-06-20T09:41:21.289Z,19.50
2019-06-20T09:43:50.078Z,19.20
2019-06-20T09:46:19.975Z,19.20
2019-06-20T09:48:49.317Z,19.20
2019-06-20T09:51:22.025Z,19.10
2019-06-20T09:53:51.851Z,18.80
2019-06-20T09:56:20.668Z,18.90
2019-06-20T09:58:49.625Z,18.80
2019-06-20T10:01:19.452Z,18.70
2019-06-20T10:03:49.009Z,18.80
2019-06-20T10:06:18.534Z,19.10
2019-06-20T10:08:48.294Z,19.40
2019-06-20T10:11:32.241Z,19.70
2019-06-20T10:14:00.866Z,19.90
2019-06-20T10:16:44.847Z,20.10
2019-06-20T10:18:59.842Z,20.10
2019-06-20T10:21:31.594Z,20.60
2019-06-20T10:24:00.210Z,21.60
2019-06-20T10:26:28.983Z,22.10
2019-06-20T10:29:09.782Z,21.90
2019-06-20T10:31:38.553Z,22.30
2019-06-20T10:34:13.385Z,22.90
2019-06-20T10:36:42.076Z,22.20
2019-06-20T10:39:11.928Z,21.80
2019-06-20T10:41:40.788Z,21.10
2019-06-20T10:44:09.575Z,21.10
2019-06-20T10:46:38.251Z,21.40
2019-06-20T10:49:07.027Z,22.10
2019-06-20T10:51:42.374Z,24.20
2019-06-20T10:54:10.667Z,25.00
2019-06-20T10:56:40.464Z,23.50
2019-06-20T10:59:09.793Z,23.00
2019-06-20T11:01:39.873Z,23.20
2019-06-20T11:04:08.901Z,22.00
2019-06-20T11:06:39.887Z,22.10
2019-06-20T11:09:08.890Z,21.90
2019-06-20T11:11:47.119Z,21.30
2019-06-20T11:14:15.935Z,21.40
2019-06-20T11:16:45.205Z,21.10
2019-06-20T11:19:13.962Z,21.00
2019-06-20T11:21:43.212Z,20.60
2019-06-20T11:24:18.567Z,20.20
2019-06-20T11:26:47.978Z,20.20
2019-06-20T11:29:16.942Z,20.00
2019-06-20T11:31:47.804Z,19.80
2019-06-20T11:34:15.910Z,19.80
2019-06-20T11:36:45.139Z,19.80
2019-06-20T11:39:13.905Z,20.00
2019-06-20T11:41:43.672Z,19.80
2019-06-20T11:44:12.475Z,19.80
2019-06-20T11:46:42.598Z,19.70
2019-06-20T11:49:11.320Z,19.20
2019-06-20T11:51:40.128Z,18.90
2019-06-20T11:54:08.952Z,18.00
2019-06-20T11:56:37.573Z,17.10
2019-06-20T11:59:06.290Z,17.10
2019-06-20T12:01:35.065Z,17.10
2019-06-20T12:04:03.747Z,17.10
2019-06-20T12:06:32.458Z,17.30
2019-06-20T12:09:01.081Z,17.40
2019-06-20T12:11:29.826Z,17.70
2019-06-20T12:13:58.471Z,18.30
2019-06-20T12:16:27.183Z,18.60
2019-06-20T12:18:55.836Z,18.40
2019-06-20T12:21:24.513Z,18.70
2019-06-20T12:23:53.304Z,19.00
2019-06-20T12:26:21.965Z,20.20
2019-06-20T12:28:50.601Z,22.80
2019-06-20T12:31:22.377Z,24.30
2019-06-20T12:33:50.990Z,25.10
2019-06-20T12:36:19.704Z,26.20
2019-06-20T12:38:48.427Z,24.70
2019-06-20T12:41:17.116Z,25.30
2019-06-20T12:43:46.358Z,25.80
2019-06-20T12:46:16.121Z,23.20
2019-06-20T12:48:45.043Z,22.70
2019-06-20T12:51:13.965Z,24.20
2019-06-20T12:53:44.067Z,23.80
2019-06-20T12:56:12.930Z,22.20
2019-06-20T12:58:42.229Z,23.60
2019-06-20T13:01:11.088Z,25.70
2019-06-20T13:03:40.394Z,23.90
2019-06-20T13:06:09.499Z,22.50
2019-06-20T13:08:40.202Z,22.30
2019-06-20T13:11:08.746Z,23.60
2019-06-20T13:13:38.830Z,23.90
2019-06-20T13:16:08.079Z,24.50
2019-06-20T13:18:36.707Z,25.50
2019-06-20T13:21:05.504Z,25.10
2019-06-20T13:23:34.206Z,26.50
2019-06-20T13:26:02.869Z,26.00
2019-06-20T13:28:31.644Z,26.00
2019-06-20T13:31:00.286Z,26.70
2019-06-20T13:33:28.881Z,26.50
2019-06-20T13:35:57.645Z,26.80
2019-06-20T13:38:26.324Z,25.60
2019-06-20T13:40:54.933Z,24.00
2019-06-20T13:43:24.590Z,25.20
2019-06-20T13:45:54.227Z,25.90
2019-06-20T13:48:26.054Z,25.80
2019-06-20T13:50:54.642Z,26.90
2019-06-20T13:53:23.248Z,27.00
2019-06-20T13:55:51.928Z,26.40
2019-06-20T13:58:20.645Z,25.90
2019-06-20T14:00:50.975Z,26.40
2019-06-20T14:03:19.826Z,26.90
2019-06-20T14:05:49.864Z,26.80
2019-06-20T14:08:19.598Z,26.70
2019-06-20T14:10:49.746Z,27.10
2019-06-20T14:13:24.001Z,26.70
2019-06-20T14:15:53.710Z,27.20
2019-06-20T14:18:22.441Z,26.70
2019-06-20T14:20:51.129Z,26.80
2019-06-20T14:23:19.874Z,27.00
2019-06-20T14:25:48.807Z,25.60
2019-06-20T14:28:17.495Z,26.10
2019-06-20T14:30:48.335Z,27.20
2019-06-20T14:33:17.174Z,26.20
2019-06-20T14:35:47.374Z,26.30
2019-06-20T14:38:16.134Z,27.10
2019-06-20T14:40:45.334Z,26.20
2019-06-20T14:43:14.154Z,25.80
2019-06-20T14:45:43.816Z,25.00
2019-06-20T14:48:13.181Z,24.30
2019-06-20T14:50:43.828Z,23.40
2019-06-20T14:53:13.040Z,23.00
2019-06-20T14:55:41.644Z,23.70
2019-06-20T14:58:11.439Z,23.00
2019-06-20T15:00:40.121Z,22.90
2019-06-20T15:03:09.839Z,22.40
2019-06-20T15:05:38.512Z,21.30
2019-06-20T15:08:07.205Z,20.70
2019-06-20T15:10:35.841Z,20.80
2019-06-20T15:13:04.524Z,20.90
2019-06-20T15:15:33.237Z,21.10
2019-06-20T15:18:01.915Z,20.70
2019-06-20T15:20:30.634Z,20.60
2019-06-20T15:23:00.391Z,20.40
2019-06-20T15:25:29.357Z,20.60
2019-06-20T15:27:58.080Z,20.10
2019-06-20T15:30:26.710Z,19.90
2019-06-20T15:33:07.495Z,19.90
2019-06-20T15:35:27.094Z,19.60
2019-06-20T15:37:57.467Z,19.70
2019-06-20T15:40:26.344Z,19.60
2019-06-20T15:42:55.449Z,19.90
2019-06-20T15:45:25.311Z,19.80
2019-06-20T15:47:54.089Z,20.90
2019-06-20T15:50:22.772Z,22.40
2019-06-20T15:52:51.406Z,22.00
2019-06-20T15:55:20.457Z,21.90
2019-06-20T15:57:49.171Z,21.40
2019-06-20T16:00:18.825Z,21.30
2019-06-20T16:02:47.456Z,22.10
2019-06-20T16:05:16.310Z,20.90
2019-06-20T16:07:44.941Z,21.20
2019-06-20T16:10:14.101Z,21.30
2019-06-20T16:12:42.785Z,20.90
2019-06-20T16:15:13.831Z,20.60
2019-06-20T16:17:42.517Z,21.00
2019-06-20T16:20:11.380Z,21.80
2019-06-20T16:22:40.030Z,21.00
2019-06-20T16:25:08.811Z,20.40
2019-06-20T16:27:37.532Z,20.40
2019-06-20T16:30:07.952Z,20.70
2019-06-20T16:32:36.657Z,20.40
2019-06-20T16:35:07.436Z,20.00
2019-06-20T16:37:36.291Z,20.10
2019-06-20T16:40:09.083Z,20.40
2019-06-20T16:42:37.765Z,19.80
2019-06-20T16:45:08.503Z,19.40
2019-06-20T16:47:37.385Z,19.40
2019-06-20T16:50:11.481Z,19.80
2019-06-20T16:52:40.194Z,19.40
2019-06-20T16:55:09.256Z,19.50
2019-06-20T16:57:37.964Z,19.30
2019-06-20T17:00:08.545Z,19.10
2019-06-20T17:02:37.333Z,19.10
2019-06-20T17:05:07.323Z,19.30
2019-06-20T17:07:36.093Z,19.50
2019-06-20T17:10:07.914Z,19.20
2019-06-20T17:12:36.689Z,18.90
2019-06-20T17:15:06.673Z,18.90
2019-06-20T17:17:35.427Z,18.70
2019-06-20T17:20:06.494Z,18.50
2019-06-20T17:22:35.176Z,18.40
2019-06-20T17:25:19.483Z,18.30
2019-06-20T17:27:48.081Z,18.50
2019-06-20T17:30:19.053Z,19.30
2019-06-20T17:32:47.792Z,18.70
2019-06-20T17:35:17.244Z,18.80
2019-06-20T17:37:46.025Z,18.70
2019-06-20T17:40:16.578Z,18.80
2019-06-20T17:42:46.265Z,18.90
2019-06-20T17:45:15.733Z,18.50
2019-06-20T17:47:44.415Z,18.60
2019-06-20T17:50:13.584Z,18.30
2019-06-20T17:52:42.564Z,18.00
2019-06-20T17:55:11.817Z,18.00
2019-06-20T17:57:40.525Z,18.40
2019-06-20T18:00:15.688Z,18.30
2019-06-20T18:02:44.390Z,18.00
2019-06-20T18:05:15.762Z,17.90
2019-06-20T18:07:44.472Z,17.70
2019-06-20T18:10:13.648Z,18.00
2019-06-20T18:12:42.414Z,18.10
2019-06-20T18:15:11.522Z,17.90
2019-06-20T18:17:40.240Z,18.10
2019-06-20T18:20:09.499Z,18.40
2019-06-20T18:22:39.153Z,18.20
2019-06-20T18:25:08.534Z,18.10
2019-06-20T18:27:37.208Z,18.20
2019-06-20T18:30:07.774Z,18.30
2019-06-20T18:32:36.542Z,18.10
2019-06-20T18:35:08.873Z,18.00
2019-06-20T18:37:37.550Z,18.00
2019-06-20T18:40:10.768Z,18.20
2019-06-20T18:42:39.813Z,18.60
2019-06-20T18:45:11.323Z,19.60
2019-06-20T18:47:40.002Z,20.00
2019-06-20T18:50:10.372Z,20.00
2019-06-20T18:52:51.536Z,19.90
2019-06-20T18:55:11.847Z,19.90
2019-06-20T18:57:40.591Z,20.10
2019-06-20T19:00:11.505Z,20.40
2019-06-20T19:02:40.248Z,20.00
2019-06-20T19:05:11.158Z,20.00
2019-06-20T19:07:39.896Z,19.70
2019-06-20T19:10:10.624Z,19.40
2019-06-20T19:12:39.481Z,19.20
2019-06-20T19:15:10.155Z,18.90
2019-06-20T19:17:38.898Z,18.80
2019-06-20T19:20:09.661Z,18.50
2019-06-20T19:22:38.282Z,18.60
2019-06-20T19:25:07.973Z,17.80
2019-06-20T19:27:45.979Z,17.30
2019-06-20T19:30:08.619Z,17.20
2019-06-20T19:32:37.328Z,17.20
2019-06-20T19:35:10.231Z,17.20
2019-06-20T19:37:38.235Z,17.20
2019-06-20T19:40:09.708Z,17.10
2019-06-20T19:42:38.547Z,17.00
2019-06-20T19:45:11.861Z,17.00
2019-06-20T19:47:41.101Z,16.90
2019-06-20T19:50:10.385Z,16.90
2019-06-20T19:52:39.703Z,16.90
2019-06-20T19:55:08.789Z,16.90
2019-06-20T19:57:37.462Z,16.80
2019-06-20T20:00:09.572Z,16.70
2019-06-20T20:02:38.279Z,16.70
2019-06-20T20:05:18.526Z,16.80
2019-06-20T20:07:44.933Z,16.60
2019-06-20T20:10:15.401Z,16.50
2019-06-20T20:12:44.013Z,16.50
2019-06-20T20:15:27.853Z,16.30
2019-06-20T20:17:56.461Z,16.20
2019-06-20T20:20:25.138Z,16.10
2019-06-20T20:22:53.841Z,16.00
2019-06-20T20:25:22.614Z,16.10
2019-06-20T20:27:51.274Z,16.10
2019-06-20T20:30:20.225Z,16.10
2019-06-20T20:32:48.949Z,15.90
2019-06-20T20:35:31.544Z,15.90
2019-06-20T20:37:48.051Z,15.90
2019-06-20T20:40:18.535Z,15.90
2019-06-20T20:42:47.140Z,15.90
2019-06-20T20:45:16.983Z,15.80
2019-06-20T20:47:45.677Z,15.80
2019-06-20T20:50:14.766Z,15.80
2019-06-20T20:52:43.423Z,15.70
2019-06-20T20:55:12.564Z,15.80
2019-06-20T20:57:53.338Z,15.80
2019-06-20T21:00:24.591Z,15.70
2019-06-20T21:02:54.053Z,15.80
2019-06-20T21:05:22.830Z,15.90
2019-06-20T21:07:51.601Z,15.80
2019-06-20T21:10:20.733Z,15.80
2019-06-20T21:12:49.430Z,15.70
2019-06-20T21:15:18.311Z,15.60
2019-06-20T21:17:46.986Z,15.70
2019-06-20T21:20:16.031Z,15.60
2019-06-20T21:22:44.826Z,15.60
2019-06-20T21:25:13.979Z,15.50
2019-06-20T21:27:42.709Z,15.40
2019-06-20T21:30:11.991Z,15.30
2019-06-20T21:32:41.753Z,15.30
2019-06-20T21:35:11.810Z,15.10
2019-06-20T21:37:40.510Z,15.30
2019-06-20T21:40:09.998Z,15.30
2019-06-20T21:42:38.636Z,15.30
2019-06-20T21:45:08.578Z,15.30
2019-06-20T21:47:37.338Z,15.20
2019-06-20T21:50:09.930Z,15.20
2019-06-20T21:52:39.019Z,15.30
2019-06-20T21:55:07.986Z,15.30
2019-06-20T21:57:42.634Z,15.30
2019-06-20T22:00:27.984Z,15.30
2019-06-20T22:02:56.861Z,15.40
2019-06-20T22:05:26.478Z,15.30
2019-06-20T22:07:59.738Z,15.30
2019-06-20T22:10:29.415Z,15.30
2019-06-20T22:12:58.217Z,15.30
2019-06-20T22:15:26.970Z,15.40
2019-06-20T22:17:55.710Z,15.40
2019-06-20T22:20:24.866Z,15.40
2019-06-20T22:22:53.615Z,15.50
2019-06-20T22:25:22.890Z,15.40
2019-06-20T22:28:36.249Z,15.50
2019-06-20T22:31:36.120Z,15.50
2019-06-20T22:34:05.082Z,15.50
2019-06-20T22:36:40.098Z,15.30
2019-06-20T22:39:05.896Z,15.40
2019-06-20T22:41:34.590Z,15.30
2019-06-20T22:44:03.381Z,15.30
2019-06-20T22:46:31.985Z,15.30
2019-06-20T22:49:00.714Z,15.30
2019-06-20T22:51:29.522Z,15.30
2019-06-20T22:53:58.277Z,15.30
2019-06-20T22:56:26.913Z,15.30
2019-06-20T22:58:55.512Z,15.30
2019-06-20T23:01:24.374Z,15.20
2019-06-20T23:03:53.130Z,15.20
2019-06-20T23:06:21.805Z,15.30
2019-06-20T23:08:50.621Z,15.30
2019-06-20T23:11:19.297Z,15.40
2019-06-20T23:13:48.014Z,15.40
2019-06-20T23:16:16.622Z,15.40
2019-06-20T23:18:45.274Z,15.30
2019-06-20T23:21:13.884Z,15.30
2019-06-20T23:23:42.593Z,15.30
2019-06-20T23:26:12.264Z,15.20
2019-06-20T23:28:40.900Z,15.10
2019-06-20T23:31:09.537Z,15.10
2019-06-20T23:33:38.251Z,14.80
2019-06-20T23:36:06.994Z,14.80
2019-06-20T23:38:35.675Z,14.70
2019-06-20T23:41:04.432Z,14.60
2019-06-20T23:43:33.038Z,14.60
2019-06-20T23:46:01.685Z,14.50
2019-06-20T23:48:30.353Z,14.50
2019-06-20T23:50:59.000Z,14.40
2019-06-20T23:53:28.351Z,14.40
2019-06-20T23:55:57.112Z,14.30
2019-06-20T23:58:25.733Z,14.20
